Bakersfield (BFL/KBFL)

Map

Destinations

Information

Location
Bakersfield, CA
Local Time
15:35 / 3:35 pm
GMT Time
22:35 / 10:35 pm
Gates
2
No FAA reported delays
METAR KBFL 242154Z 31011G19KT 10SM CLR 38/10 A2976 RMK AO2 SLP069 T03830100
TAF KBFL 241727Z 2418/2518 31008KT P6SM FEW200 FM242100 34010KT P6SM SCT200